Time;durP1;ratioP1;P1;durP2;ratioP2;P2;SDS_P1;SDS_P2;PMS_P1;PMS_P2;Temp;Humidity;BMP_temperature;BMP_pressure;BME280_temperature;BME280_humidity;BME280_pressure;Samples;Min_cycle;Max_cycle;Signal;HPM_P1;HPM_P2
2022/03/03 00:02:14;;;;;;;43.92;21.95;;;3.10;99.90;;;;;;4805651;29;20082;-83
2022/03/03 00:04:40;;;;;;;47.63;23.73;;;2.10;99.90;;;;;;4819174;29;20115;-84
2022/03/03 00:07:06;;;;;;;46.70;24.15;;;2.10;99.90;;;;;;4808921;29;20049;-84
2022/03/03 00:09:32;;;;;;;43.50;22.63;;;2.10;99.90;;;;;;4820328;29;20057;-84
2022/03/03 00:11:57;;;;;;;46.50;23.30;;;2.10;99.90;;;;;;4823582;29;20137;-84
2022/03/03 00:14:23;;;;;;;43.28;23.05;;;2.00;99.90;;;;;;4808903;29;20098;-84
2022/03/03 00:16:49;;;;;;;44.72;23.15;;;2.00;99.90;;;;;;4823692;29;20057;-84
2022/03/03 00:19:14;;;;;;;44.00;23.15;;;2.70;99.90;;;;;;4837901;29;20050;-84
2022/03/03 00:21:40;;;;;;;40.90;21.92;;;1.90;99.90;;;;;;4805699;29;20141;-84
2022/03/03 00:24:06;;;;;;;39.53;21.63;;;1.90;99.90;;;;;;4807210;29;20050;-84
2022/03/03 00:26:32;;;;;;;43.30;22.58;;;2.60;99.90;;;;;;4808127;29;20050;-84
2022/03/03 00:28:58;;;;;;;42.92;21.92;;;2.40;99.90;;;;;;4806401;29;20134;-83
2022/03/03 00:31:24;;;;;;;42.22;22.50;;;1.80;99.90;;;;;;4823348;29;20089;-84
2022/03/03 00:33:50;;;;;;;42.33;22.83;;;2.70;99.90;;;;;;4823022;29;20122;-83
2022/03/03 00:36:15;;;;;;;55.85;24.85;;;2.70;99.90;;;;;;4822910;29;20065;-83
2022/03/03 00:38:41;;;;;;;41.30;22.42;;;1.80;99.90;;;;;;4823072;29;20072;-83
2022/03/03 00:41:07;;;;;;;41.20;21.50;;;1.90;99.90;;;;;;4823076;29;20050;-84
2022/03/03 00:43:33;;;;;;;38.65;20.55;;;1.80;99.90;;;;;;4794283;29;20051;-84
2022/03/03 00:45:58;;;;;;;41.10;20.05;;;1.70;99.90;;;;;;4804462;29;20139;-84
2022/03/03 00:48:24;;;;;;;40.75;19.75;;;2.20;99.90;;;;;;4803912;29;20063;-84
2022/03/03 00:50:50;;;;;;;42.90;22.67;;;1.70;99.90;;;;;;4837092;29;20055;-85
2022/03/03 00:53:16;;;;;;;41.05;21.08;;;1.70;99.90;;;;;;4820281;29;20082;-85
2022/03/03 00:55:41;;;;;;;39.75;20.38;;;2.00;99.90;;;;;;4807395;29;20054;-84
2022/03/03 00:58:07;;;;;;;37.03;19.77;;;1.60;99.90;;;;;;4807672;29;20066;-84
2022/03/03 01:00:33;;;;;;;42.88;20.65;;;1.60;99.90;;;;;;4831014;29;20054;-84
2022/03/03 01:02:58;;;;;;;40.50;21.48;;;1.80;99.90;;;;;;4807650;29;20077;-83
2022/03/03 01:05:24;;;;;;;43.03;21.45;;;1.50;99.90;;;;;;4807121;29;20073;-84
2022/03/03 01:07:50;;;;;;;43.63;21.90;;;1.50;99.90;;;;;;4807262;29;20141;-84
2022/03/03 01:10:15;;;;;;;46.35;22.52;;;1.50;99.90;;;;;;4822936;29;20054;-85
2022/03/03 01:12:41;;;;;;;44.65;22.67;;;2.10;99.90;;;;;;4804103;29;20061;-84
2022/03/03 01:15:09;;;;;;;42.30;23.33;;;2.00;99.90;;;;;;4821993;29;20445;-83
2022/03/03 01:17:35;;;;;;;42.80;22.02;;;1.40;99.90;;;;;;4807073;29;20119;-84
2022/03/03 01:20:01;;;;;;;43.15;22.30;;;1.80;99.90;;;;;;4806919;29;20054;-83
2022/03/03 01:22:26;;;;;;;46.45;23.38;;;1.90;99.90;;;;;;4795981;29;20092;-85
2022/03/03 01:24:52;;;;;;;43.33;22.23;;;1.50;99.90;;;;;;4807211;29;20052;-84
2022/03/03 01:27:19;;;;;;;44.30;22.70;;;1.20;99.90;;;;;;4807251;29;20048;-84
2022/03/03 01:29:44;;;;;;;42.22;21.95;;;1.80;99.90;;;;;;4807372;29;20062;-84
2022/03/03 01:32:10;;;;;;;47.60;26.58;;;2.20;99.90;;;;;;4822701;29;20100;-84
2022/03/03 01:34:37;;;;;;;41.92;21.02;;;1.30;99.90;;;;;;4822322;29;20046;-83
2022/03/03 01:37:03;;;;;;;43.88;22.35;;;1.90;99.90;;;;;;4822406;29;20081;-84
2022/03/03 01:39:29;;;;;;;40.90;19.95;;;1.30;99.90;;;;;;4819011;29;20446;-84
2022/03/03 01:41:55;;;;;;;44.40;22.52;;;1.70;99.90;;;;;;4822335;29;20050;-83
2022/03/03 01:44:21;;;;;;;44.17;21.77;;;1.60;99.90;;;;;;4806559;29;20115;-83
2022/03/03 01:46:57;;;;;;;41.28;20.20;;;1.70;99.90;;;;;;4821877;29;20050;-83
2022/03/03 01:49:24;;;;;;;;;;;1.10;99.90;;;;;;4821807;29;20069;-84
2022/03/03 01:51:51;;;;;;;40.90;21.15;;;2.00;99.90;;;;;;4822078;29;19928;-84
2022/03/03 01:54:17;;;;;;;42.15;21.83;;;1.00;99.90;;;;;;4806612;29;20050;-83
2022/03/03 01:56:45;;;;;;;40.83;20.92;;;1.00;99.90;;;;;;4806584;29;20083;-84
2022/03/03 01:59:11;;;;;;;41.67;21.60;;;1.00;99.90;;;;;;4829652;29;20061;-83
2022/03/03 02:01:38;;;;;;;43.15;22.15;;;1.00;99.90;;;;;;4827902;29;20642;-84
2022/03/03 02:04:09;;;;;;;40.78;21.65;;;1.80;99.90;;;;;;4806639;29;20636;-84
2022/03/03 02:06:37;;;;;;;46.22;23.08;;;0.90;99.90;;;;;;4821525;29;20499;-84
2022/03/03 02:09:03;;;;;;;43.08;21.55;;;0.90;99.90;;;;;;4828412;29;20066;-83
2022/03/03 02:11:31;;;;;;;37.05;19.85;;;0.90;99.90;;;;;;4819696;29;20053;-84
2022/03/03 02:14:04;;;;;;;38.92;20.50;;;0.90;99.90;;;;;;4803323;29;20051;-84
2022/03/03 02:16:30;;;;;;;39.47;21.05;;;0.90;99.90;;;;;;4822100;29;20077;-83
2022/03/03 02:18:56;;;;;;;42.80;21.02;;;0.80;99.90;;;;;;4803163;29;20051;-83
2022/03/03 02:21:22;;;;;;;37.70;19.52;;;0.80;99.90;;;;;;4820191;29;20485;-83
2022/03/03 02:23:48;;;;;;;39.90;22.17;;;1.30;99.90;;;;;;4806735;29;20078;-83
2022/03/03 02:26:22;;;;;;;39.47;20.42;;;0.80;99.90;;;;;;4805892;29;20097;-83
2022/03/03 02:28:49;;;;;;;39.20;20.60;;;0.80;99.90;;;;;;4806551;29;20138;-83
2022/03/03 02:31:15;;;;;;;37.30;20.35;;;0.80;99.90;;;;;;4809467;29;20489;-84
2022/03/03 02:33:41;;;;;;;37.40;19.85;;;0.80;99.90;;;;;;4821205;29;20058;-83
2022/03/03 02:36:23;;;;;;;36.55;20.90;;;1.50;99.90;;;;;;4821027;29;20050;-83
2022/03/03 02:38:51;;;;;;;37.80;20.45;;;0.70;99.90;;;;;;4795652;29;20188;-83
2022/03/03 02:41:18;;;;;;;39.58;20.92;;;0.60;99.90;;;;;;4818540;29;20082;-83
2022/03/03 02:43:44;;;;;;;39.63;20.50;;;0.70;99.90;;;;;;4821379;29;20556;-84
2022/03/03 02:46:10;;;;;;;39.97;20.60;;;0.70;99.90;;;;;;4806618;29;20142;-83
2022/03/03 02:48:36;;;;;;;44.28;22.27;;;0.70;99.90;;;;;;4807391;29;20091;-83
2022/03/03 02:51:02;;;;;;;37.67;19.60;;;0.60;99.90;;;;;;4809786;29;20093;-83
2022/03/03 02:53:28;;;;;;;39.70;20.67;;;0.50;99.90;;;;;;4810172;29;20064;-83
2022/03/03 02:55:53;;;;;;;41.70;20.27;;;0.40;99.90;;;;;;4801006;29;20209;-83
2022/03/03 02:58:19;;;;;;;42.15;20.75;;;1.10;99.90;;;;;;4824788;29;20415;-83
2022/03/03 03:00:47;;;;;;;42.53;22.00;;;0.40;99.90;;;;;;4809755;29;20146;-83
2022/03/03 03:03:13;;;;;;;38.53;20.90;;;0.40;99.90;;;;;;4802292;29;20054;-83
2022/03/03 03:05:40;;;;;;;40.35;21.15;;;0.90;99.90;;;;;;4824346;29;20529;-83
2022/03/03 03:08:05;;;;;;;41.00;20.92;;;1.10;99.90;;;;;;4813175;29;20092;-83
2022/03/03 03:10:32;;;;;;;40.40;20.20;;;0.40;99.90;;;;;;4821355;29;20058;-84
2022/03/03 03:12:58;;;;;;;36.53;19.05;;;0.30;99.90;;;;;;4806210;29;20062;-83
2022/03/03 03:15:24;;;;;;;39.10;19.45;;;0.30;99.90;;;;;;4823729;29;20797;-83
2022/03/03 03:17:50;;;;;;;37.55;18.85;;;0.30;99.90;;;;;;4808505;29;20142;-83
2022/03/03 03:20:16;;;;;;;38.00;19.10;;;0.80;99.90;;;;;;4798514;29;20133;-83
2022/03/03 03:22:42;;;;;;;37.40;19.10;;;0.30;99.90;;;;;;4839657;29;20133;-82
2022/03/03 03:25:10;;;;;;;33.85;17.80;;;0.30;99.90;;;;;;4822835;29;20130;-83
2022/03/03 03:27:37;;;;;;;36.17;19.45;;;0.20;99.90;;;;;;4806208;29;20077;-83
2022/03/03 03:30:08;;;;;;;39.97;21.48;;;0.40;99.90;;;;;;4802160;29;20123;-83
2022/03/03 03:32:34;;;;;;;40.03;20.02;;;0.10;99.90;;;;;;4824505;29;20136;-83
2022/03/03 03:34:59;;;;;;;38.42;19.80;;;0.30;99.90;;;;;;4824265;29;20130;-83
2022/03/03 03:37:25;;;;;;;36.80;20.77;;;0.00;99.90;;;;;;4823817;29;20046;-84
2022/03/03 03:39:51;;;;;;;37.70;19.90;;;0.00;99.90;;;;;;4821281;29;20058;-83
2022/03/03 03:42:17;;;;;;;36.72;19.60;;;0.00;99.90;;;;;;4836146;29;20489;-83
2022/03/03 03:44:42;;;;;;;39.92;20.98;;;0.10;99.90;;;;;;4815234;29;20125;-83
2022/03/03 03:47:10;;;;;;;37.88;19.63;;;0.30;99.90;;;;;;4823813;29;20118;-83
2022/03/03 03:49:36;;;;;;;38.35;20.17;;;0.00;99.90;;;;;;4804568;29;20050;-83
2022/03/03 03:52:03;;;;;;;37.05;19.23;;;0.50;99.90;;;;;;4823418;29;20046;-83
2022/03/03 03:54:28;;;;;;;35.92;18.90;;;0.10;99.90;;;;;;4808214;29;20098;-83
2022/03/03 03:56:54;;;;;;;40.25;19.73;;;0.00;99.90;;;;;;4808915;29;20090;-83
2022/03/03 03:59:20;;;;;;;36.63;20.92;;;0.60;99.90;;;;;;4823526;29;20046;-83
2022/03/03 04:01:46;;;;;;;38.42;21.95;;;0.00;99.90;;;;;;4794055;29;20058;-83
2022/03/03 04:04:11;;;;;;;36.53;20.17;;;-0.10;99.90;;;;;;4822993;29;20046;-83
2022/03/03 04:06:37;;;;;;;36.10;19.83;;;-0.10;99.90;;;;;;4823522;29;20062;-83
2022/03/03 04:09:04;;;;;;;37.70;20.02;;;-0.10;99.90;;;;;;4811354;29;20069;-83
2022/03/03 04:11:30;;;;;;;38.80;20.05;;;0.50;99.90;;;;;;4823346;29;20492;-82
2022/03/03 04:13:57;;;;;;;33.25;18.50;;;0.30;99.90;;;;;;4835707;29;20082;-82
2022/03/03 04:16:26;;;;;;;37.13;19.48;;;-0.10;99.90;;;;;;4823339;29;20062;-82
2022/03/03 04:18:52;;;;;;;37.42;20.95;;;-0.10;99.90;;;;;;4820270;29;20059;-83
2022/03/03 04:21:18;;;;;;;40.30;20.35;;;0.00;99.90;;;;;;4823194;29;20054;-83
2022/03/03 04:23:44;;;;;;;35.05;18.90;;;-0.10;99.90;;;;;;4808190;29;20069;-82
2022/03/03 04:26:10;;;;;;;38.60;20.55;;;0.00;99.90;;;;;;4837150;29;20046;-82
2022/03/03 04:28:36;;;;;;;38.28;18.45;;;-0.10;99.90;;;;;;4821253;29;20050;-83
2022/03/03 04:31:02;;;;;;;41.25;19.77;;;-0.10;99.90;;;;;;4821324;29;20091;-84
2022/03/03 04:33:28;;;;;;;34.78;18.77;;;0.80;99.90;;;;;;4820130;29;20137;-82
2022/03/03 04:35:54;;;;;;;41.60;21.63;;;0.00;99.90;;;;;;4822037;29;20187;-85
2022/03/03 04:38:19;;;;;;;42.25;23.55;;;0.00;99.90;;;;;;4805876;29;20058;-82
2022/03/03 04:40:45;;;;;;;39.97;22.02;;;0.00;99.90;;;;;;4822714;29;20046;-82
2022/03/03 04:43:11;;;;;;;35.25;20.88;;;0.00;99.90;;;;;;4804413;29;20089;-82
2022/03/03 04:45:37;;;;;;;35.38;21.08;;;0.00;99.90;;;;;;4807787;29;20129;-83
2022/03/03 04:48:03;;;;;;;35.08;19.20;;;0.10;99.90;;;;;;4807119;29;20058;-82
2022/03/03 04:50:30;;;;;;;34.38;18.80;;;0.10;99.90;;;;;;4822823;29;20842;-82
2022/03/03 04:52:56;;;;;;;33.45;18.30;;;0.10;99.90;;;;;;4807536;29;20073;-83
2022/03/03 04:55:22;;;;;;;36.45;18.80;;;0.10;99.90;;;;;;4819945;29;20054;-82
2022/03/03 04:57:48;;;;;;;32.38;18.80;;;0.10;99.90;;;;;;4838108;29;20057;-82
2022/03/03 05:00:14;;;;;;;34.50;18.52;;;0.00;99.90;;;;;;4824417;29;20058;-83
2022/03/03 05:02:40;;;;;;;32.10;17.13;;;0.00;99.90;;;;;;4819979;29;20133;-82
2022/03/03 05:05:06;;;;;;;34.08;18.58;;;0.00;99.90;;;;;;4821162;29;20129;-82
2022/03/03 05:07:32;;;;;;;34.75;19.83;;;0.00;99.90;;;;;;4823182;29;20056;-82
2022/03/03 05:09:58;;;;;;;32.58;18.48;;;0.00;99.90;;;;;;4796411;29;20049;-82
2022/03/03 05:12:24;;;;;;;30.75;17.50;;;0.30;99.90;;;;;;4806972;29;20058;-82
2022/03/03 05:14:50;;;;;;;33.22;17.77;;;-0.10;99.90;;;;;;4807527;29;20057;-82
2022/03/03 05:17:15;;;;;;;34.30;18.02;;;0.10;99.90;;;;;;4804126;29;20141;-82
2022/03/03 05:19:41;;;;;;;34.90;19.02;;;0.30;99.90;;;;;;4819676;29;20057;-82
2022/03/03 05:22:07;;;;;;;31.70;18.23;;;0.60;99.90;;;;;;4807081;29;20065;-83
2022/03/03 05:24:33;;;;;;;33.55;19.85;;;-0.20;99.90;;;;;;4822141;29;20042;-83
2022/03/03 05:26:58;;;;;;;34.78;18.10;;;-0.20;99.90;;;;;;4822053;29;20046;-82
2022/03/03 05:29:25;;;;;;;31.27;18.85;;;0.10;99.90;;;;;;4822537;29;20046;-83
2022/03/03 05:31:51;;;;;;;29.50;17.45;;;-0.20;99.90;;;;;;4794736;29;20046;-82
2022/03/03 05:34:16;;;;;;;33.10;19.42;;;-0.20;99.90;;;;;;4807101;29;20142;-82
2022/03/03 05:36:42;;;;;;;32.50;17.85;;;-0.20;99.90;;;;;;4822265;29;20050;-82
2022/03/03 05:39:08;;;;;;;32.45;17.65;;;-0.20;99.90;;;;;;4807233;29;20058;-82
2022/03/03 05:41:34;;;;;;;31.20;18.67;;;0.50;99.90;;;;;;4790493;29;20047;-82
2022/03/03 05:44:00;;;;;;;26.70;16.08;;;-0.30;99.90;;;;;;4788817;29;20047;-82
2022/03/03 05:46:26;;;;;;;28.00;17.05;;;-0.30;99.90;;;;;;4806825;29;20499;-83
2022/03/03 05:48:52;;;;;;;31.90;18.50;;;0.20;99.90;;;;;;4820672;29;20518;-83
2022/03/03 05:51:19;;;;;;;33.13;17.23;;;0.60;99.90;;;;;;4806771;29;20077;-83
2022/03/03 05:53:45;;;;;;;29.48;16.35;;;-0.30;99.90;;;;;;4806847;29;20043;-82
2022/03/03 05:56:13;;;;;;;29.17;16.70;;;0.30;99.90;;;;;;4822052;29;20130;-82
2022/03/03 05:58:44;;;;;;;29.15;16.73;;;-0.40;99.90;;;;;;4825907;29;20064;-82
2022/03/03 06:01:11;;;;;;;29.42;16.42;;;-0.40;99.90;;;;;;4825230;29;20053;-82
2022/03/03 06:03:37;;;;;;;29.13;16.85;;;-0.50;99.90;;;;;;4822012;29;20129;-82
2022/03/03 06:06:17;;;;;;;30.42;16.58;;;-0.20;99.90;;;;;;4821757;29;20198;-83
2022/03/03 06:08:57;;;;;;;26.65;16.42;;;-0.50;99.90;;;;;;4807880;29;20059;-82
2022/03/03 06:11:26;;;;;;;29.98;17.02;;;-0.50;99.90;;;;;;4821726;29;20137;-82
2022/03/03 06:13:57;;;;;;;28.13;15.55;;;-0.50;99.90;;;;;;4790342;29;20133;-83
2022/03/03 06:16:25;;;;;;;30.73;16.95;;;-0.50;99.90;;;;;;4807033;29;20110;-82
2022/03/03 06:18:51;;;;;;;30.10;16.73;;;0.20;99.90;;;;;;4820986;29;20058;-82
2022/03/03 06:21:17;;;;;;;29.55;17.23;;;0.00;99.90;;;;;;4818848;29;20050;-82
2022/03/03 06:23:44;;;;;;;31.92;18.40;;;-0.50;99.90;;;;;;4820467;29;20063;-82
2022/03/03 06:26:16;;;;;;;31.45;19.23;;;-0.10;99.90;;;;;;4821524;29;20050;-82
2022/03/03 06:28:42;;;;;;;30.98;18.55;;;-0.50;99.90;;;;;;4795697;29;20062;-81
2022/03/03 06:31:08;;;;;;;30.70;17.38;;;-0.50;99.90;;;;;;4836423;29;20065;-82
2022/03/03 06:33:35;;;;;;;30.38;17.33;;;-0.50;99.90;;;;;;4803080;29;20054;-82
2022/03/03 06:36:01;;;;;;;29.67;17.17;;;-0.20;99.90;;;;;;4821386;29;20054;-82
2022/03/03 06:38:27;;;;;;;27.27;16.83;;;-0.60;99.90;;;;;;4821863;29;20057;-82
2022/03/03 06:40:55;;;;;;;28.42;16.63;;;0.40;99.90;;;;;;4791059;29;20067;-82
2022/03/03 06:43:20;;;;;;;28.65;16.58;;;0.30;99.90;;;;;;4820996;29;20054;-84
2022/03/03 06:45:46;;;;;;;27.67;16.92;;;-0.50;99.90;;;;;;4828738;29;20058;-83
2022/03/03 06:48:13;;;;;;;30.15;16.77;;;-0.50;99.90;;;;;;4805467;29;20110;-83
2022/03/03 06:50:42;;;;;;;28.75;16.52;;;0.80;99.90;;;;;;4821343;29;20134;-82
2022/03/03 06:53:08;;;;;;;30.92;16.83;;;-0.40;99.90;;;;;;4805852;29;20092;-82
2022/03/03 06:55:34;;;;;;;31.27;17.70;;;0.40;99.90;;;;;;4821308;29;20077;-83
2022/03/03 06:58:00;;;;;;;33.20;17.92;;;-0.30;99.90;;;;;;4821332;29;20077;-82
2022/03/03 07:00:33;;;;;;;31.05;17.55;;;0.50;99.90;;;;;;4794679;29;20051;-83
2022/03/03 07:03:00;;;;;;;28.92;16.50;;;-0.20;99.90;;;;;;4821103;29;20504;-83
2022/03/03 07:05:28;;;;;;;31.67;17.63;;;-0.20;99.90;;;;;;4820806;29;20053;-83
2022/03/03 07:07:54;;;;;;;27.52;17.23;;;-0.10;99.90;;;;;;4811185;29;20155;-83
2022/03/03 07:10:25;;;;;;;29.60;17.50;;;0.80;99.90;;;;;;4806862;29;20050;-83
2022/03/03 07:12:57;;;;;;;31.77;17.40;;;0.00;99.90;;;;;;4821283;29;20073;-82
2022/03/03 07:15:24;;;;;;;33.50;17.95;;;0.10;99.90;;;;;;4821390;29;20103;-84
2022/03/03 07:17:53;;;;;;;31.90;16.30;;;0.30;99.90;;;;;;4806038;29;20115;-84
2022/03/03 07:20:56;;;;;;;26.23;15.63;;;0.20;99.90;;;;;;4805455;29;20074;-84
2022/03/03 07:23:34;;;;;;;30.92;16.73;;;0.30;99.90;;;;;;4808245;29;20050;-84
2022/03/03 07:26:01;;;;;;;28.55;16.73;;;0.40;99.90;;;;;;4820737;29;20058;-84
2022/03/03 07:28:29;;;;;;;30.17;18.20;;;0.50;99.90;;;;;;4805803;29;20529;-84
2022/03/03 07:30:55;;;;;;;29.67;17.17;;;1.30;99.90;;;;;;4824927;29;20065;-85
2022/03/03 07:33:56;;;;;;;31.40;16.88;;;0.60;99.90;;;;;;4807687;29;20388;-84
2022/03/03 07:36:28;;;;;;;28.90;16.50;;;0.70;99.90;;;;;;4828380;29;20551;-84
2022/03/03 07:39:07;;;;;;;29.20;16.30;;;0.90;99.90;;;;;;4826325;29;20102;-84
2022/03/03 07:41:33;;;;;;;30.80;18.65;;;0.90;99.90;;;;;;4823761;29;20056;-84
2022/03/03 07:44:00;;;;;;;29.00;17.92;;;1.00;99.90;;;;;;4823466;29;20544;-84
2022/03/03 07:46:26;;;;;;;30.83;16.88;;;1.00;99.90;;;;;;4823997;29;20062;-84
2022/03/03 07:48:53;;;;;;;29.88;17.17;;;1.40;99.90;;;;;;4823212;29;20063;-84
2022/03/03 07:51:20;;;;;;;26.48;16.67;;;1.80;99.90;;;;;;4823868;29;20050;-84
2022/03/03 07:53:46;;;;;;;28.10;15.93;;;1.30;99.90;;;;;;4823723;29;20057;-84
2022/03/03 07:56:20;;;;;;;31.17;17.15;;;1.30;99.90;;;;;;4823781;29;20054;-84
2022/03/03 07:58:50;;;;;;;32.08;17.20;;;1.40;99.90;;;;;;4828418;29;20136;-84
2022/03/03 08:01:19;;;;;;;30.35;17.15;;;1.80;99.90;;;;;;4795189;29;20134;-84
2022/03/03 08:03:46;;;;;;;28.58;16.80;;;2.10;99.90;;;;;;4823755;29;20103;-83
2022/03/03 08:06:15;;;;;;;31.33;16.10;;;2.50;99.90;;;;;;4823371;29;20043;-83
2022/03/03 08:08:42;;;;;;;31.30;16.40;;;1.80;99.90;;;;;;4828738;29;20051;-83
2022/03/03 08:11:09;;;;;;;32.90;17.55;;;2.40;99.90;;;;;;4824598;29;20519;-84
2022/03/03 08:13:36;;;;;;;26.95;16.90;;;2.00;99.90;;;;;;4817491;29;20059;-82
2022/03/03 08:16:03;;;;;;;29.80;16.38;;;3.00;99.90;;;;;;4821722;29;20117;-83
2022/03/03 08:18:37;;;;;;;26.05;15.55;;;2.30;99.90;;;;;;4821710;29;20065;-83
2022/03/03 08:21:06;;;;;;;27.45;15.60;;;2.40;99.90;;;;;;4820352;29;20137;-83
2022/03/03 08:23:33;;;;;;;30.23;17.38;;;3.10;99.90;;;;;;4802703;29;20121;-84
2022/03/03 08:26:00;;;;;;;31.98;17.70;;;3.20;99.90;;;;;;4815075;29;20411;-83
2022/03/03 08:28:26;;;;;;;28.30;16.55;;;2.70;99.90;;;;;;4822996;29;20058;-84
2022/03/03 08:31:02;;;;;;;27.48;16.40;;;3.00;99.90;;;;;;4822944;29;20042;-84
2022/03/03 08:34:12;;;;;;;27.45;16.08;;;2.80;99.90;;;;;;4817307;29;20050;-83
2022/03/03 08:36:46;;;;;;;31.35;16.95;;;3.00;99.90;;;;;;4804868;29;20055;-85
2022/03/03 08:39:15;;;;;;;26.45;16.88;;;3.10;99.90;;;;;;4802685;29;20051;-85
2022/03/03 08:41:42;;;;;;;28.05;16.10;;;3.60;99.90;;;;;;4822109;29;20468;-86
2022/03/03 08:44:10;;;;;;;25.92;15.63;;;3.30;99.90;;;;;;4811988;29;20122;-86
2022/03/03 08:46:39;;;;;;;27.42;15.95;;;3.60;99.90;;;;;;4793181;29;20050;-86
2022/03/03 08:49:08;;;;;;;27.67;15.70;;;3.90;99.90;;;;;;4818979;29;20062;-91
2022/03/03 08:51:35;;;;;;;27.98;16.23;;;3.70;99.90;;;;;;4804598;29;20050;-86
2022/03/03 08:54:01;;;;;;;27.77;16.77;;;4.10;99.90;;;;;;4834852;29;20050;-87
2022/03/03 08:56:26;;;;;;;26.90;15.10;;;3.90;99.90;;;;;;4813493;29;20396;-86
2022/03/03 08:58:54;;;;;;;27.73;16.55;;;4.00;99.90;;;;;;4818818;29;20516;-87
2022/03/03 09:01:20;;;;;;;25.58;16.45;;;4.70;99.90;;;;;;4804009;29;20053;-87
2022/03/03 09:03:46;;;;;;;26.60;15.75;;;4.30;99.90;;;;;;4804128;29;20069;-84
2022/03/03 09:06:19;;;;;;;30.23;18.08;;;4.40;99.90;;;;;;4808308;29;20083;-86
2022/03/03 09:08:45;;;;;;;27.42;16.98;;;4.50;99.90;;;;;;4806911;29;20125;-85
2022/03/03 09:11:11;;;;;;;32.42;17.40;;;4.80;99.90;;;;;;4812764;29;20054;-86
2022/03/03 09:13:37;;;;;;;27.30;16.25;;;4.70;99.90;;;;;;4834389;29;20055;-87
2022/03/03 09:16:03;;;;;;;26.55;16.40;;;4.90;99.90;;;;;;4809922;29;20267;-87
2022/03/03 09:18:31;;;;;;;28.05;16.10;;;5.00;99.90;;;;;;4804040;29;20137;-87
2022/03/03 09:20:57;;;;;;;27.63;16.90;;;5.40;99.90;;;;;;4818338;29;20050;-87
2022/03/03 09:23:23;;;;;;;25.63;15.95;;;5.20;99.90;;;;;;4819115;29;20069;-88
2022/03/03 09:25:48;;;;;;;26.50;16.40;;;5.40;99.90;;;;;;4804757;29;20496;-87
2022/03/03 09:28:14;;;;;;;29.98;17.00;;;5.50;99.90;;;;;;4806958;29;20060;-87
2022/03/03 09:30:40;;;;;;;24.85;15.32;;;6.70;99.90;;;;;;4816104;29;20153;-87
2022/03/03 09:33:06;;;;;;;24.60;15.68;;;5.70;99.90;;;;;;4838058;29;20054;-88
2022/03/03 09:35:32;;;;;;;22.83;14.98;;;5.80;99.90;;;;;;4805476;29;20050;-87
2022/03/03 09:37:58;;;;;;;25.92;14.93;;;5.90;99.90;;;;;;4818833;29;20137;-87
2022/03/03 09:40:24;;;;;;;24.70;15.15;;;6.00;99.90;;;;;;4818580;29;20061;-87
2022/03/03 09:43:07;;;;;;;26.17;16.15;;;6.10;99.90;;;;;;4832858;29;20047;-87
2022/03/03 09:45:34;;;;;;;22.80;14.60;;;6.30;99.90;;;;;;4808311;29;20091;-87
2022/03/03 09:48:05;;;;;;;25.90;15.48;;;6.60;99.90;;;;;;4820274;29;20054;-87
2022/03/03 09:50:34;;;;;;;21.63;14.38;;;6.60;99.90;;;;;;4819087;29;20065;-87
2022/03/03 09:53:01;;;;;;;24.80;14.57;;;6.70;99.90;;;;;;4816315;29;20054;-88
2022/03/03 09:55:27;;;;;;;23.17;14.57;;;6.90;99.90;;;;;;4806736;29;20057;-88
2022/03/03 09:57:52;;;;;;;22.17;13.88;;;7.00;99.90;;;;;;4827956;29;20456;-87
2022/03/03 10:00:18;;;;;;;23.60;13.43;;;7.10;99.90;;;;;;4797607;29;20159;-86
2022/03/03 10:03:10;;;;;;;22.98;14.05;;;7.30;99.90;;;;;;4819790;29;20543;-85
2022/03/03 10:05:48;;;;;;;22.45;13.63;;;7.50;99.90;;;;;;4791079;29;20042;-86
2022/03/03 10:08:22;;;;;;;24.23;13.73;;;8.00;99.90;;;;;;4842621;29;20054;-85
2022/03/03 10:10:59;;;;;;;23.70;13.32;;;8.50;99.90;;;;;;4821169;29;20400;-85
2022/03/03 10:13:26;;;;;;;23.05;13.48;;;8.90;99.90;;;;;;4802883;29;20559;-86
2022/03/03 10:15:53;;;;;;;20.88;13.73;;;9.20;99.90;;;;;;4814164;29;20086;-85
2022/03/03 10:18:20;;;;;;;22.60;14.13;;;9.50;99.90;;;;;;4802918;29;20096;-85
2022/03/03 10:20:55;;;;;;;22.25;14.32;;;9.70;99.90;;;;;;4814396;29;20069;-85
2022/03/03 10:23:30;;;;;;;23.95;13.98;;;9.90;99.90;;;;;;4803040;29;20047;-85
2022/03/03 10:26:01;;;;;;;19.02;12.98;;;10.20;99.90;;;;;;4828384;29;20055;-86
2022/03/03 10:28:29;;;;;;;20.33;13.30;;;10.30;99.90;;;;;;4809736;29;20077;-85
2022/03/03 10:31:05;;;;;;;19.77;13.30;;;10.40;99.90;;;;;;4820464;29;20197;-86
2022/03/03 10:33:31;;;;;;;19.77;13.25;;;10.60;99.90;;;;;;4794200;29;20058;-85
2022/03/03 10:36:06;;;;;;;19.80;13.57;;;10.70;99.90;;;;;;4799398;29;20050;-86
2022/03/03 10:38:34;;;;;;;18.70;12.95;;;10.90;99.90;;;;;;4801421;29;20051;-84
2022/03/03 10:41:00;;;;;;;17.20;12.85;;;11.20;99.90;;;;;;4816415;29;20053;-85
2022/03/03 10:43:26;;;;;;;20.63;13.32;;;11.40;99.90;;;;;;4807731;29;20050;-84
2022/03/03 10:46:02;;;;;;;18.55;13.05;;;11.40;99.90;;;;;;4834458;29;20492;-85
2022/03/03 10:48:28;;;;;;;18.58;13.63;;;11.50;99.90;;;;;;4808122;29;20141;-83
2022/03/03 10:50:55;;;;;;;17.55;12.85;;;11.70;99.90;;;;;;4802942;29;20086;-85
2022/03/03 10:53:25;;;;;;;18.38;13.77;;;11.70;99.90;;;;;;4806487;29;20098;-84
2022/03/03 10:56:01;;;;;;;16.98;12.48;;;11.70;99.90;;;;;;4788147;29;20055;-85
2022/03/03 10:58:45;;;;;;;17.73;13.23;;;11.80;99.90;;;;;;4817976;29;20078;-84
2022/03/03 11:01:11;;;;;;;18.65;12.35;;;11.90;99.90;;;;;;4817321;29;20465;-84
2022/03/03 11:03:39;;;;;;;18.05;13.38;;;11.80;99.90;;;;;;4805962;29;20115;-84
2022/03/03 11:06:05;;;;;;;20.45;13.43;;;11.90;99.90;;;;;;4812317;29;20055;-83
2022/03/03 11:08:31;;;;;;;19.08;13.48;;;12.10;99.90;;;;;;4819161;29;20043;-85
2022/03/03 11:10:57;;;;;;;19.05;13.50;;;12.30;99.90;;;;;;4814223;29;20060;-84
2022/03/03 11:13:24;;;;;;;17.80;13.35;;;12.40;99.90;;;;;;4822117;29;20057;-84
2022/03/03 11:15:52;;;;;;;19.45;13.05;;;12.40;99.90;;;;;;4821203;29;20100;-84
2022/03/03 11:18:18;;;;;;;16.85;12.55;;;12.40;99.90;;;;;;4820411;29;20051;-85
2022/03/03 11:20:52;;;;;;;18.00;13.00;;;12.50;99.90;;;;;;4807673;29;20043;-84
2022/03/03 11:23:18;;;;;;;15.55;11.80;;;12.60;99.90;;;;;;4814237;29;20050;-84
2022/03/03 11:25:48;;;;;;;17.10;12.35;;;12.70;99.90;;;;;;4790375;29;20053;-84
2022/03/03 11:28:15;;;;;;;17.00;12.45;;;12.90;99.90;;;;;;4820782;29;20098;-84
2022/03/03 11:30:43;;;;;;;17.58;11.75;;;13.00;99.90;;;;;;4805924;29;20062;-84
2022/03/03 11:33:23;;;;;;;16.38;11.95;;;13.10;99.90;;;;;;4793008;29;20076;-83
2022/03/03 11:35:50;;;;;;;17.30;11.63;;;13.20;99.90;;;;;;4806943;29;20062;-83
2022/03/03 11:38:16;;;;;;;15.80;11.65;;;13.10;99.90;;;;;;4815654;29;20061;-84
2022/03/03 11:40:54;;;;;;;16.77;11.38;;;13.10;99.90;;;;;;4802385;29;20064;-84
2022/03/03 11:43:20;;;;;;;16.92;11.02;;;13.00;99.90;;;;;;4805886;29;20152;-85
2022/03/03 11:45:54;;;;;;;16.48;11.80;;;12.90;99.90;;;;;;4835630;29;20129;-84
2022/03/03 11:48:22;;;;;;;18.00;12.25;;;13.10;99.90;;;;;;4819886;29;20093;-84
2022/03/03 11:50:52;;;;;;;17.38;12.27;;;13.20;99.90;;;;;;4820793;29;20062;-84
2022/03/03 11:53:21;;;;;;;18.42;13.30;;;13.10;99.90;;;;;;4820377;29;20050;-84
2022/03/03 11:55:55;;;;;;;17.80;12.82;;;13.10;99.90;;;;;;4823618;29;20046;-84
2022/03/03 11:58:40;;;;;;;16.98;11.98;;;13.20;99.90;;;;;;4794695;29;20062;-84
2022/03/03 12:01:11;;;;;;;16.50;11.52;;;13.00;99.90;;;;;;4807830;29;20046;-84
2022/03/03 12:03:56;;;;;;;19.00;12.18;;;12.70;99.90;;;;;;4811530;29;20123;-85
2022/03/03 12:06:43;;;;;;;15.55;11.05;;;12.40;99.90;;;;;;4819886;29;20047;-85
2022/03/03 12:09:25;;;;;;;15.05;10.60;;;12.20;99.90;;;;;;4823271;29;20492;-85
2022/03/03 12:12:10;;;;;;;15.93;10.93;;;12.00;99.90;;;;;;4805984;29;20137;-83
2022/03/03 12:14:39;;;;;;;15.40;10.00;;;11.80;99.90;;;;;;4804653;29;20083;-83
2022/03/03 12:17:33;;;;;;;15.00;11.68;;;11.70;99.90;;;;;;4812591;29;20129;-84
2022/03/03 12:20:24;;;;;;;13.07;9.88;;;11.60;99.90;;;;;;4803819;29;20063;-83
2022/03/03 12:23:10;;;;;;;14.15;9.35;;;11.50;99.90;;;;;;4804422;29;20054;-84
2022/03/03 12:25:50;;;;;;;16.58;10.20;;;11.80;99.90;;;;;;4819730;29;20050;-85
2022/03/03 12:28:19;;;;;;;16.33;11.40;;;12.50;99.90;;;;;;4819982;29;20047;-85
2022/03/03 12:30:47;;;;;;;15.40;10.55;;;13.20;99.90;;;;;;4820390;29;20468;-86
2022/03/03 12:33:30;;;;;;;12.93;9.60;;;13.90;99.90;;;;;;4824416;29;20482;-85
2022/03/03 12:36:06;;;;;;;14.82;10.38;;;14.60;99.90;;;;;;4805084;29;20419;-86
2022/03/03 12:38:36;;;;;;;15.15;10.20;;;15.30;99.90;;;;;;4834550;29;20496;-85
2022/03/03 12:41:03;;;;;;;13.77;9.65;;;15.80;99.90;;;;;;4822588;29;20080;-86